sensor_id;sensor_type;location;lat;lon;timestamp;P1;durP1;ratioP1;P2;durP2;ratioP2
52894;SDS011;38759;53.396;6.722;2024-02-23T00:01:06;4.35;;;0.70;;
52894;SDS011;38759;53.396;6.722;2024-02-23T00:03:33;9.05;;;1.00;;
52894;SDS011;38759;53.396;6.722;2024-02-23T00:06:00;9.73;;;1.00;;
52894;SDS011;38759;53.396;6.722;2024-02-23T00:08:26;4.53;;;0.85;;
52894;SDS011;38759;53.396;6.722;2024-02-23T00:10:52;7.45;;;0.98;;
52894;SDS011;38759;53.396;6.722;2024-02-23T00:13:17;5.13;;;0.98;;
52894;SDS011;38759;53.396;6.722;2024-02-23T00:15:43;8.40;;;0.90;;
52894;SDS011;38759;53.396;6.722;2024-02-23T00:18:09;13.60;;;1.63;;
52894;SDS011;38759;53.396;6.722;2024-02-23T00:20:34;4.53;;;1.05;;
52894;SDS011;38759;53.396;6.722;2024-02-23T00:23:01;8.15;;;0.90;;
52894;SDS011;38759;53.396;6.722;2024-02-23T00:25:27;15.13;;;1.52;;
52894;SDS011;38759;53.396;6.722;2024-02-23T00:27:53;11.13;;;1.35;;
52894;SDS011;38759;53.396;6.722;2024-02-23T00:30:19;5.13;;;1.08;;
52894;SDS011;38759;53.396;6.722;2024-02-23T00:32:44;4.18;;;0.77;;
52894;SDS011;38759;53.396;6.722;2024-02-23T00:35:10;7.38;;;0.80;;
52894;SDS011;38759;53.396;6.722;2024-02-23T00:37:36;2.17;;;0.47;;
52894;SDS011;38759;53.396;6.722;2024-02-23T00:40:02;8.30;;;1.80;;
52894;SDS011;38759;53.396;6.722;2024-02-23T00:42:29;6.22;;;0.98;;
52894;SDS011;38759;53.396;6.722;2024-02-23T00:44:55;4.20;;;0.90;;
52894;SDS011;38759;53.396;6.722;2024-02-23T00:47:21;10.27;;;1.13;;
52894;SDS011;38759;53.396;6.722;2024-02-23T00:49:47;7.10;;;1.00;;
52894;SDS011;38759;53.396;6.722;2024-02-23T00:52:12;7.20;;;0.95;;
52894;SDS011;38759;53.396;6.722;2024-02-23T00:54:39;3.72;;;0.60;;
52894;SDS011;38759;53.396;6.722;2024-02-23T00:57:04;9.98;;;1.05;;
52894;SDS011;38759;53.396;6.722;2024-02-23T00:59:30;8.98;;;1.42;;
52894;SDS011;38759;53.396;6.722;2024-02-23T01:01:56;6.97;;;1.05;;
52894;SDS011;38759;53.396;6.722;2024-02-23T01:04:21;8.20;;;1.00;;
52894;SDS011;38759;53.396;6.722;2024-02-23T01:06:47;13.23;;;1.40;;
52894;SDS011;38759;53.396;6.722;2024-02-23T01:09:12;6.55;;;0.90;;
52894;SDS011;38759;53.396;6.722;2024-02-23T01:11:41;5.95;;;1.17;;
52894;SDS011;38759;53.396;6.722;2024-02-23T01:14:06;16.35;;;2.25;;
52894;SDS011;38759;53.396;6.722;2024-02-23T01:16:32;4.85;;;1.27;;
52894;SDS011;38759;53.396;6.722;2024-02-23T01:18:58;9.88;;;1.30;;
52894;SDS011;38759;53.396;6.722;2024-02-23T01:21:24;7.28;;;0.77;;
52894;SDS011;38759;53.396;6.722;2024-02-23T01:23:49;6.10;;;1.20;;
52894;SDS011;38759;53.396;6.722;2024-02-23T01:26:15;4.82;;;0.88;;
52894;SDS011;38759;53.396;6.722;2024-02-23T01:28:41;6.88;;;0.90;;
52894;SDS011;38759;53.396;6.722;2024-02-23T01:31:10;8.23;;;0.70;;
52894;SDS011;38759;53.396;6.722;2024-02-23T01:33:37;8.02;;;0.85;;
52894;SDS011;38759;53.396;6.722;2024-02-23T01:36:06;3.90;;;1.10;;
52894;SDS011;38759;53.396;6.722;2024-02-23T01:38:32;6.60;;;1.20;;
52894;SDS011;38759;53.396;6.722;2024-02-23T01:40:58;3.45;;;0.95;;
52894;SDS011;38759;53.396;6.722;2024-02-23T01:43:24;3.20;;;0.70;;
52894;SDS011;38759;53.396;6.722;2024-02-23T01:45:50;6.00;;;0.80;;
52894;SDS011;38759;53.396;6.722;2024-02-23T01:48:17;5.72;;;1.40;;
52894;SDS011;38759;53.396;6.722;2024-02-23T01:50:43;3.55;;;0.88;;
52894;SDS011;38759;53.396;6.722;2024-02-23T01:53:10;5.22;;;1.05;;
52894;SDS011;38759;53.396;6.722;2024-02-23T01:55:37;13.98;;;1.40;;
52894;SDS011;38759;53.396;6.722;2024-02-23T01:58:07;9.65;;;1.45;;
52894;SDS011;38759;53.396;6.722;2024-02-23T02:00:33;14.93;;;1.67;;
52894;SDS011;38759;53.396;6.722;2024-02-23T02:03:00;12.75;;;2.10;;
52894;SDS011;38759;53.396;6.722;2024-02-23T02:05:26;10.80;;;1.70;;
52894;SDS011;38759;53.396;6.722;2024-02-23T02:07:53;15.27;;;2.25;;
52894;SDS011;38759;53.396;6.722;2024-02-23T02:10:24;7.32;;;1.67;;
52894;SDS011;38759;53.396;6.722;2024-02-23T02:12:50;9.60;;;1.55;;
52894;SDS011;38759;53.396;6.722;2024-02-23T02:15:16;8.60;;;1.30;;
52894;SDS011;38759;53.396;6.722;2024-02-23T02:17:42;11.48;;;1.77;;
52894;SDS011;38759;53.396;6.722;2024-02-23T02:20:11;9.65;;;1.25;;
52894;SDS011;38759;53.396;6.722;2024-02-23T02:22:38;9.98;;;1.50;;
52894;SDS011;38759;53.396;6.722;2024-02-23T02:25:04;6.40;;;1.20;;
52894;SDS011;38759;53.396;6.722;2024-02-23T02:27:31;8.93;;;1.58;;
52894;SDS011;38759;53.396;6.722;2024-02-23T02:29:57;12.55;;;1.98;;
52894;SDS011;38759;53.396;6.722;2024-02-23T02:32:23;13.20;;;2.28;;
52894;SDS011;38759;53.396;6.722;2024-02-23T02:34:48;14.48;;;1.92;;
52894;SDS011;38759;53.396;6.722;2024-02-23T02:37:14;13.38;;;2.08;;
52894;SDS011;38759;53.396;6.722;2024-02-23T02:39:40;11.88;;;1.92;;
52894;SDS011;38759;53.396;6.722;2024-02-23T02:42:06;17.42;;;1.60;;
52894;SDS011;38759;53.396;6.722;2024-02-23T02:44:32;10.95;;;1.83;;
52894;SDS011;38759;53.396;6.722;2024-02-23T02:46:57;9.95;;;1.88;;
52894;SDS011;38759;53.396;6.722;2024-02-23T02:49:23;15.88;;;2.80;;
52894;SDS011;38759;53.396;6.722;2024-02-23T02:51:49;13.68;;;2.15;;
52894;SDS011;38759;53.396;6.722;2024-02-23T02:54:15;20.83;;;2.40;;
52894;SDS011;38759;53.396;6.722;2024-02-23T02:56:45;14.95;;;2.05;;
52894;SDS011;38759;53.396;6.722;2024-02-23T02:59:13;11.77;;;2.22;;
52894;SDS011;38759;53.396;6.722;2024-02-23T03:01:39;11.90;;;1.73;;
52894;SDS011;38759;53.396;6.722;2024-02-23T03:04:04;15.45;;;1.60;;
52894;SDS011;38759;53.396;6.722;2024-02-23T03:06:30;6.20;;;1.52;;
52894;SDS011;38759;53.396;6.722;2024-02-23T03:08:58;24.27;;;2.45;;
52894;SDS011;38759;53.396;6.722;2024-02-23T03:11:24;9.38;;;1.92;;
52894;SDS011;38759;53.396;6.722;2024-02-23T03:13:50;12.40;;;2.80;;
52894;SDS011;38759;53.396;6.722;2024-02-23T03:16:19;8.38;;;1.90;;
52894;SDS011;38759;53.396;6.722;2024-02-23T03:18:46;14.23;;;1.95;;
52894;SDS011;38759;53.396;6.722;2024-02-23T03:21:12;8.30;;;1.65;;
52894;SDS011;38759;53.396;6.722;2024-02-23T03:23:40;10.02;;;2.53;;
52894;SDS011;38759;53.396;6.722;2024-02-23T03:26:09;9.10;;;1.77;;
52894;SDS011;38759;53.396;6.722;2024-02-23T03:28:34;13.32;;;2.00;;
52894;SDS011;38759;53.396;6.722;2024-02-23T03:31:00;11.88;;;1.70;;
52894;SDS011;38759;53.396;6.722;2024-02-23T03:33:26;9.35;;;1.98;;
52894;SDS011;38759;53.396;6.722;2024-02-23T03:35:52;12.02;;;1.70;;
52894;SDS011;38759;53.396;6.722;2024-02-23T03:38:17;11.05;;;1.98;;
52894;SDS011;38759;53.396;6.722;2024-02-23T03:40:43;9.55;;;1.60;;
52894;SDS011;38759;53.396;6.722;2024-02-23T03:43:09;6.68;;;1.30;;
52894;SDS011;38759;53.396;6.722;2024-02-23T03:45:34;7.45;;;1.50;;
52894;SDS011;38759;53.396;6.722;2024-02-23T03:48:00;11.88;;;1.75;;
52894;SDS011;38759;53.396;6.722;2024-02-23T03:50:27;9.85;;;1.40;;
52894;SDS011;38759;53.396;6.722;2024-02-23T03:52:53;11.38;;;1.67;;
52894;SDS011;38759;53.396;6.722;2024-02-23T03:55:19;5.18;;;1.92;;
52894;SDS011;38759;53.396;6.722;2024-02-23T03:57:45;8.55;;;1.50;;
52894;SDS011;38759;53.396;6.722;2024-02-23T04:00:10;8.05;;;1.60;;
52894;SDS011;38759;53.396;6.722;2024-02-23T04:02:38;12.57;;;2.17;;
52894;SDS011;38759;53.396;6.722;2024-02-23T04:05:03;12.02;;;1.90;;
52894;SDS011;38759;53.396;6.722;2024-02-23T04:07:30;10.88;;;1.85;;
52894;SDS011;38759;53.396;6.722;2024-02-23T04:09:56;13.57;;;1.60;;
52894;SDS011;38759;53.396;6.722;2024-02-23T04:12:22;7.22;;;1.42;;
52894;SDS011;38759;53.396;6.722;2024-02-23T04:14:47;10.25;;;1.65;;
52894;SDS011;38759;53.396;6.722;2024-02-23T04:17:13;12.57;;;1.92;;
52894;SDS011;38759;53.396;6.722;2024-02-23T04:19:42;8.68;;;1.35;;
52894;SDS011;38759;53.396;6.722;2024-02-23T04:22:08;16.52;;;1.70;;
52894;SDS011;38759;53.396;6.722;2024-02-23T04:24:40;12.25;;;1.83;;
52894;SDS011;38759;53.396;6.722;2024-02-23T04:27:06;10.13;;;1.80;;
52894;SDS011;38759;53.396;6.722;2024-02-23T04:29:33;14.13;;;1.88;;
52894;SDS011;38759;53.396;6.722;2024-02-23T04:31:59;15.00;;;1.52;;
52894;SDS011;38759;53.396;6.722;2024-02-23T04:34:26;8.35;;;1.58;;
52894;SDS011;38759;53.396;6.722;2024-02-23T04:36:52;8.18;;;1.75;;
52894;SDS011;38759;53.396;6.722;2024-02-23T04:39:18;14.65;;;1.90;;
52894;SDS011;38759;53.396;6.722;2024-02-23T04:41:44;7.55;;;1.30;;
52894;SDS011;38759;53.396;6.722;2024-02-23T04:44:09;10.70;;;1.88;;
52894;SDS011;38759;53.396;6.722;2024-02-23T04:46:35;12.70;;;1.50;;
52894;SDS011;38759;53.396;6.722;2024-02-23T04:49:01;8.02;;;1.35;;
52894;SDS011;38759;53.396;6.722;2024-02-23T04:51:27;4.95;;;1.33;;
52894;SDS011;38759;53.396;6.722;2024-02-23T04:53:53;8.77;;;1.40;;
52894;SDS011;38759;53.396;6.722;2024-02-23T04:56:19;13.80;;;1.67;;
52894;SDS011;38759;53.396;6.722;2024-02-23T04:58:45;11.32;;;1.45;;
52894;SDS011;38759;53.396;6.722;2024-02-23T05:01:11;8.18;;;1.60;;
52894;SDS011;38759;53.396;6.722;2024-02-23T05:03:37;6.28;;;0.93;;
52894;SDS011;38759;53.396;6.722;2024-02-23T05:06:03;9.20;;;1.20;;
52894;SDS011;38759;53.396;6.722;2024-02-23T05:08:30;8.25;;;1.20;;
52894;SDS011;38759;53.396;6.722;2024-02-23T05:10:56;9.00;;;1.63;;
52894;SDS011;38759;53.396;6.722;2024-02-23T05:13:22;9.60;;;1.40;;
52894;SDS011;38759;53.396;6.722;2024-02-23T05:15:48;7.50;;;1.20;;
52894;SDS011;38759;53.396;6.722;2024-02-23T05:18:14;7.45;;;1.20;;
52894;SDS011;38759;53.396;6.722;2024-02-23T05:20:40;12.48;;;1.50;;
52894;SDS011;38759;53.396;6.722;2024-02-23T05:23:06;8.63;;;1.33;;
52894;SDS011;38759;53.396;6.722;2024-02-23T05:25:32;9.00;;;1.42;;
52894;SDS011;38759;53.396;6.722;2024-02-23T05:27:58;11.20;;;1.35;;
52894;SDS011;38759;53.396;6.722;2024-02-23T05:30:24;9.45;;;1.48;;
52894;SDS011;38759;53.396;6.722;2024-02-23T05:32:51;7.90;;;1.35;;
52894;SDS011;38759;53.396;6.722;2024-02-23T05:35:17;6.75;;;1.25;;
52894;SDS011;38759;53.396;6.722;2024-02-23T05:37:43;12.30;;;1.40;;
52894;SDS011;38759;53.396;6.722;2024-02-23T05:40:08;13.27;;;1.75;;
52894;SDS011;38759;53.396;6.722;2024-02-23T05:42:37;10.45;;;1.20;;
52894;SDS011;38759;53.396;6.722;2024-02-23T05:45:03;13.02;;;1.67;;
52894;SDS011;38759;53.396;6.722;2024-02-23T05:47:34;8.43;;;1.60;;
52894;SDS011;38759;53.396;6.722;2024-02-23T05:50:01;9.25;;;1.52;;
52894;SDS011;38759;53.396;6.722;2024-02-23T05:52:28;8.15;;;1.60;;
52894;SDS011;38759;53.396;6.722;2024-02-23T05:54:54;8.27;;;1.38;;
52894;SDS011;38759;53.396;6.722;2024-02-23T05:57:21;12.75;;;1.60;;
52894;SDS011;38759;53.396;6.722;2024-02-23T05:59:46;9.40;;;1.75;;
52894;SDS011;38759;53.396;6.722;2024-02-23T06:02:12;13.45;;;1.23;;
52894;SDS011;38759;53.396;6.722;2024-02-23T06:04:40;11.73;;;1.52;;
52894;SDS011;38759;53.396;6.722;2024-02-23T06:07:05;7.30;;;1.30;;
52894;SDS011;38759;53.396;6.722;2024-02-23T06:09:31;7.45;;;1.40;;
52894;SDS011;38759;53.396;6.722;2024-02-23T06:11:57;12.05;;;1.33;;
52894;SDS011;38759;53.396;6.722;2024-02-23T06:14:22;9.48;;;1.50;;
52894;SDS011;38759;53.396;6.722;2024-02-23T06:16:48;10.35;;;1.40;;
52894;SDS011;38759;53.396;6.722;2024-02-23T06:19:14;12.68;;;1.52;;
52894;SDS011;38759;53.396;6.722;2024-02-23T06:21:40;9.88;;;1.35;;
52894;SDS011;38759;53.396;6.722;2024-02-23T06:24:06;6.57;;;1.20;;
52894;SDS011;38759;53.396;6.722;2024-02-23T06:26:33;14.65;;;1.70;;
52894;SDS011;38759;53.396;6.722;2024-02-23T06:28:59;8.15;;;1.65;;
52894;SDS011;38759;53.396;6.722;2024-02-23T06:31:25;14.35;;;2.97;;
52894;SDS011;38759;53.396;6.722;2024-02-23T06:33:51;10.80;;;2.05;;
52894;SDS011;38759;53.396;6.722;2024-02-23T06:36:17;10.95;;;2.90;;
52894;SDS011;38759;53.396;6.722;2024-02-23T06:38:44;15.00;;;3.58;;
52894;SDS011;38759;53.396;6.722;2024-02-23T06:41:10;8.10;;;2.70;;
52894;SDS011;38759;53.396;6.722;2024-02-23T06:43:36;9.90;;;3.17;;
52894;SDS011;38759;53.396;6.722;2024-02-23T06:46:08;11.07;;;3.42;;
52894;SDS011;38759;53.396;6.722;2024-02-23T06:48:37;7.93;;;3.28;;
52894;SDS011;38759;53.396;6.722;2024-02-23T06:51:04;15.73;;;4.25;;
52894;SDS011;38759;53.396;6.722;2024-02-23T06:53:30;15.82;;;4.45;;
52894;SDS011;38759;53.396;6.722;2024-02-23T06:55:56;14.60;;;4.68;;
52894;SDS011;38759;53.396;6.722;2024-02-23T06:58:24;11.40;;;4.75;;
52894;SDS011;38759;53.396;6.722;2024-02-23T07:00:49;11.57;;;4.70;;
52894;SDS011;38759;53.396;6.722;2024-02-23T07:03:15;16.88;;;4.40;;
52894;SDS011;38759;53.396;6.722;2024-02-23T07:05:41;15.70;;;4.57;;
52894;SDS011;38759;53.396;6.722;2024-02-23T07:08:07;16.02;;;5.00;;
52894;SDS011;38759;53.396;6.722;2024-02-23T07:10:33;16.02;;;5.53;;
52894;SDS011;38759;53.396;6.722;2024-02-23T07:12:59;16.90;;;5.00;;
52894;SDS011;38759;53.396;6.722;2024-02-23T07:15:24;18.23;;;5.53;;
52894;SDS011;38759;53.396;6.722;2024-02-23T07:17:51;12.13;;;4.30;;
52894;SDS011;38759;53.396;6.722;2024-02-23T07:20:17;17.10;;;5.32;;
52894;SDS011;38759;53.396;6.722;2024-02-23T07:22:46;16.35;;;5.28;;
52894;SDS011;38759;53.396;6.722;2024-02-23T07:25:15;17.15;;;5.00;;
52894;SDS011;38759;53.396;6.722;2024-02-23T07:27:42;15.25;;;5.45;;
52894;SDS011;38759;53.396;6.722;2024-02-23T07:30:07;13.25;;;4.80;;
52894;SDS011;38759;53.396;6.722;2024-02-23T07:32:34;12.82;;;4.60;;
52894;SDS011;38759;53.396;6.722;2024-02-23T07:35:00;15.80;;;5.72;;
52894;SDS011;38759;53.396;6.722;2024-02-23T07:37:26;20.80;;;4.90;;
52894;SDS011;38759;53.396;6.722;2024-02-23T07:39:52;14.23;;;6.45;;
52894;SDS011;38759;53.396;6.722;2024-02-23T07:42:18;13.82;;;5.90;;
52894;SDS011;38759;53.396;6.722;2024-02-23T07:44:44;14.57;;;5.00;;
52894;SDS011;38759;53.396;6.722;2024-02-23T07:47:10;13.38;;;5.25;;
52894;SDS011;38759;53.396;6.722;2024-02-23T07:49:36;14.13;;;5.68;;
52894;SDS011;38759;53.396;6.722;2024-02-23T07:52:02;18.13;;;6.00;;
52894;SDS011;38759;53.396;6.722;2024-02-23T07:54:28;19.95;;;5.05;;
52894;SDS011;38759;53.396;6.722;2024-02-23T07:56:54;11.80;;;4.78;;
52894;SDS011;38759;53.396;6.722;2024-02-23T07:59:19;10.98;;;4.80;;
52894;SDS011;38759;53.396;6.722;2024-02-23T08:01:45;9.50;;;4.07;;
52894;SDS011;38759;53.396;6.722;2024-02-23T08:04:11;15.55;;;5.30;;
52894;SDS011;38759;53.396;6.722;2024-02-23T08:06:38;13.13;;;5.53;;
52894;SDS011;38759;53.396;6.722;2024-02-23T08:09:04;18.25;;;5.32;;
52894;SDS011;38759;53.396;6.722;2024-02-23T08:11:30;12.30;;;4.70;;
52894;SDS011;38759;53.396;6.722;2024-02-23T08:13:55;14.07;;;5.07;;
52894;SDS011;38759;53.396;6.722;2024-02-23T08:16:21;13.45;;;4.70;;
52894;SDS011;38759;53.396;6.722;2024-02-23T08:18:47;11.43;;;4.55;;
52894;SDS011;38759;53.396;6.722;2024-02-23T08:21:12;17.55;;;5.25;;
52894;SDS011;38759;53.396;6.722;2024-02-23T08:23:38;13.38;;;4.88;;
52894;SDS011;38759;53.396;6.722;2024-02-23T08:26:04;13.02;;;5.00;;
52894;SDS011;38759;53.396;6.722;2024-02-23T08:28:31;12.13;;;4.25;;
52894;SDS011;38759;53.396;6.722;2024-02-23T08:30:56;12.68;;;4.85;;
52894;SDS011;38759;53.396;6.722;2024-02-23T08:33:22;10.27;;;4.43;;
52894;SDS011;38759;53.396;6.722;2024-02-23T08:35:48;9.52;;;3.80;;
52894;SDS011;38759;53.396;6.722;2024-02-23T08:38:13;9.57;;;4.20;;
52894;SDS011;38759;53.396;6.722;2024-02-23T08:40:39;9.23;;;3.88;;
52894;SDS011;38759;53.396;6.722;2024-02-23T08:43:05;13.27;;;4.18;;
52894;SDS011;38759;53.396;6.722;2024-02-23T08:45:31;9.85;;;3.50;;
52894;SDS011;38759;53.396;6.722;2024-02-23T08:48:00;9.80;;;3.08;;
52894;SDS011;38759;53.396;6.722;2024-02-23T08:50:25;6.82;;;3.08;;
52894;SDS011;38759;53.396;6.722;2024-02-23T08:52:51;8.88;;;2.83;;
52894;SDS011;38759;53.396;6.722;2024-02-23T08:55:17;4.78;;;3.28;;
52894;SDS011;38759;53.396;6.722;2024-02-23T08:57:42;5.80;;;3.25;;
52894;SDS011;38759;53.396;6.722;2024-02-23T09:00:08;8.48;;;3.38;;
52894;SDS011;38759;53.396;6.722;2024-02-23T09:02:35;5.82;;;2.78;;
52894;SDS011;38759;53.396;6.722;2024-02-23T09:05:03;6.78;;;2.90;;
52894;SDS011;38759;53.396;6.722;2024-02-23T09:07:29;9.48;;;2.58;;
52894;SDS011;38759;53.396;6.722;2024-02-23T09:09:55;8.77;;;2.78;;
52894;SDS011;38759;53.396;6.722;2024-02-23T09:12:22;7.35;;;2.10;;
52894;SDS011;38759;53.396;6.722;2024-02-23T09:14:48;6.78;;;2.80;;
52894;SDS011;38759;53.396;6.722;2024-02-23T09:17:13;4.43;;;2.05;;
52894;SDS011;38759;53.396;6.722;2024-02-23T09:19:39;5.47;;;2.20;;
52894;SDS011;38759;53.396;6.722;2024-02-23T09:22:05;4.97;;;2.03;;
52894;SDS011;38759;53.396;6.722;2024-02-23T09:24:30;5.68;;;2.10;;
52894;SDS011;38759;53.396;6.722;2024-02-23T09:26:56;9.70;;;2.15;;
52894;SDS011;38759;53.396;6.722;2024-02-23T09:29:22;5.65;;;1.70;;
52894;SDS011;38759;53.396;6.722;2024-02-23T09:31:47;8.77;;;1.73;;
52894;SDS011;38759;53.396;6.722;2024-02-23T09:34:13;9.38;;;2.00;;
52894;SDS011;38759;53.396;6.722;2024-02-23T09:36:39;6.40;;;2.00;;
52894;SDS011;38759;53.396;6.722;2024-02-23T09:39:04;7.22;;;1.80;;
52894;SDS011;38759;53.396;6.722;2024-02-23T09:41:30;7.40;;;2.25;;
52894;SDS011;38759;53.396;6.722;2024-02-23T09:43:57;7.53;;;2.47;;
52894;SDS011;38759;53.396;6.722;2024-02-23T09:46:23;4.85;;;1.88;;
52894;SDS011;38759;53.396;6.722;2024-02-23T09:48:51;8.52;;;1.95;;
52894;SDS011;38759;53.396;6.722;2024-02-23T09:51:18;8.15;;;1.92;;
52894;SDS011;38759;53.396;6.722;2024-02-23T09:53:45;7.38;;;1.63;;
52894;SDS011;38759;53.396;6.722;2024-02-23T09:56:14;4.55;;;1.73;;
52894;SDS011;38759;53.396;6.722;2024-02-23T09:58:42;3.90;;;1.73;;
52894;SDS011;38759;53.396;6.722;2024-02-23T10:01:09;6.07;;;1.83;;
52894;SDS011;38759;53.396;6.722;2024-02-23T10:03:37;7.00;;;2.10;;
52894;SDS011;38759;53.396;6.722;2024-02-23T10:06:04;7.18;;;1.77;;
52894;SDS011;38759;53.396;6.722;2024-02-23T10:08:30;6.38;;;1.85;;
52894;SDS011;38759;53.396;6.722;2024-02-23T10:10:56;5.05;;;1.42;;
52894;SDS011;38759;53.396;6.722;2024-02-23T10:13:22;6.82;;;1.40;;
52894;SDS011;38759;53.396;6.722;2024-02-23T10:15:54;12.05;;;1.88;;
52894;SDS011;38759;53.396;6.722;2024-02-23T10:18:20;5.25;;;1.70;;
52894;SDS011;38759;53.396;6.722;2024-02-23T10:20:46;6.80;;;2.10;;
52894;SDS011;38759;53.396;6.722;2024-02-23T10:23:12;4.53;;;1.42;;
52894;SDS011;38759;53.396;6.722;2024-02-23T10:25:38;4.57;;;1.58;;
52894;SDS011;38759;53.396;6.722;2024-02-23T10:28:05;4.07;;;1.33;;
52894;SDS011;38759;53.396;6.722;2024-02-23T10:30:31;9.27;;;1.63;;
52894;SDS011;38759;53.396;6.722;2024-02-23T10:32:58;5.45;;;1.45;;
52894;SDS011;38759;53.396;6.722;2024-02-23T10:35:25;5.07;;;1.33;;
52894;SDS011;38759;53.396;6.722;2024-02-23T10:37:52;8.00;;;1.30;;
52894;SDS011;38759;53.396;6.722;2024-02-23T10:40:19;9.50;;;1.98;;
52894;SDS011;38759;53.396;6.722;2024-02-23T10:42:47;13.27;;;1.60;;
52894;SDS011;38759;53.396;6.722;2024-02-23T10:45:16;4.57;;;1.13;;
52894;SDS011;38759;53.396;6.722;2024-02-23T10:47:43;6.28;;;1.27;;
52894;SDS011;38759;53.396;6.722;2024-02-23T10:50:09;4.50;;;1.17;;
52894;SDS011;38759;53.396;6.722;2024-02-23T10:52:40;4.50;;;0.98;;
52894;SDS011;38759;53.396;6.722;2024-02-23T10:55:08;6.72;;;1.27;;
52894;SDS011;38759;53.396;6.722;2024-02-23T10:57:34;6.97;;;1.65;;
52894;SDS011;38759;53.396;6.722;2024-02-23T11:00:00;7.60;;;1.02;;
52894;SDS011;38759;53.396;6.722;2024-02-23T11:02:31;7.15;;;1.20;;
52894;SDS011;38759;53.396;6.722;2024-02-23T11:04:59;4.95;;;1.35;;
52894;SDS011;38759;53.396;6.722;2024-02-23T11:07:24;7.40;;;1.65;;
52894;SDS011;38759;53.396;6.722;2024-02-23T11:09:54;7.28;;;1.40;;
52894;SDS011;38759;53.396;6.722;2024-02-23T11:12:24;6.35;;;1.40;;
52894;SDS011;38759;53.396;6.722;2024-02-23T11:14:50;6.15;;;1.60;;
52894;SDS011;38759;53.396;6.722;2024-02-23T11:17:20;6.75;;;1.33;;
52894;SDS011;38759;53.396;6.722;2024-02-23T11:19:50;5.15;;;1.30;;
52894;SDS011;38759;53.396;6.722;2024-02-23T11:25:16;7.65;;;1.30;;
52894;SDS011;38759;53.396;6.722;2024-02-23T11:27:42;4.57;;;1.10;;
52894;SDS011;38759;53.396;6.722;2024-02-23T11:30:09;10.40;;;1.30;;
52894;SDS011;38759;53.396;6.722;2024-02-23T11:32:46;7.78;;;1.15;;
52894;SDS011;38759;53.396;6.722;2024-02-23T11:35:16;7.78;;;1.52;;
52894;SDS011;38759;53.396;6.722;2024-02-23T11:37:54;9.07;;;1.20;;
52894;SDS011;38759;53.396;6.722;2024-02-23T11:40:24;2.75;;;1.10;;
52894;SDS011;38759;53.396;6.722;2024-02-23T11:42:56;7.93;;;1.35;;
52894;SDS011;38759;53.396;6.722;2024-02-23T11:45:25;5.47;;;1.25;;
52894;SDS011;38759;53.396;6.722;2024-02-23T11:47:52;5.65;;;1.23;;
52894;SDS011;38759;53.396;6.722;2024-02-23T11:50:18;5.30;;;1.38;;
52894;SDS011;38759;53.396;6.722;2024-02-23T11:52:47;7.72;;;1.38;;
52894;SDS011;38759;53.396;6.722;2024-02-23T11:55:13;5.07;;;1.40;;
52894;SDS011;38759;53.396;6.722;2024-02-23T11:57:44;6.80;;;1.63;;
52894;SDS011;38759;53.396;6.722;2024-02-23T12:00:10;6.70;;;1.30;;
52894;SDS011;38759;53.396;6.722;2024-02-23T12:02:36;4.60;;;1.20;;
52894;SDS011;38759;53.396;6.722;2024-02-23T12:05:02;11.45;;;1.58;;
52894;SDS011;38759;53.396;6.722;2024-02-23T12:07:28;7.55;;;1.27;;
52894;SDS011;38759;53.396;6.722;2024-02-23T12:09:55;7.32;;;1.63;;
52894;SDS011;38759;53.396;6.722;2024-02-23T12:12:22;6.05;;;1.10;;
52894;SDS011;38759;53.396;6.722;2024-02-23T12:14:48;11.38;;;1.60;;
52894;SDS011;38759;53.396;6.722;2024-02-23T12:17:14;7.03;;;1.58;;
52894;SDS011;38759;53.396;6.722;2024-02-23T12:19:39;7.20;;;1.45;;
52894;SDS011;38759;53.396;6.722;2024-02-23T12:22:05;7.88;;;1.30;;
52894;SDS011;38759;53.396;6.722;2024-02-23T12:24:31;8.23;;;1.17;;
52894;SDS011;38759;53.396;6.722;2024-02-23T12:26:57;3.50;;;1.33;;
52894;SDS011;38759;53.396;6.722;2024-02-23T12:29:23;13.10;;;1.40;;
52894;SDS011;38759;53.396;6.722;2024-02-23T12:31:49;6.13;;;1.30;;
52894;SDS011;38759;53.396;6.722;2024-02-23T12:34:18;5.70;;;1.30;;
52894;SDS011;38759;53.396;6.722;2024-02-23T12:36:45;9.07;;;1.60;;
52894;SDS011;38759;53.396;6.722;2024-02-23T12:39:11;10.23;;;1.38;;
52894;SDS011;38759;53.396;6.722;2024-02-23T12:41:37;7.57;;;1.50;;
52894;SDS011;38759;53.396;6.722;2024-02-23T12:44:02;9.43;;;1.60;;
52894;SDS011;38759;53.396;6.722;2024-02-23T12:46:28;8.38;;;1.50;;
52894;SDS011;38759;53.396;6.722;2024-02-23T12:48:54;6.03;;;1.50;;
52894;SDS011;38759;53.396;6.722;2024-02-23T12:51:19;5.07;;;1.42;;
52894;SDS011;38759;53.396;6.722;2024-02-23T12:53:50;4.53;;;1.70;;
52894;SDS011;38759;53.396;6.722;2024-02-23T12:56:16;5.70;;;1.42;;
52894;SDS011;38759;53.396;6.722;2024-02-23T12:58:43;10.30;;;1.77;;
52894;SDS011;38759;53.396;6.722;2024-02-23T13:01:10;5.18;;;1.23;;
52894;SDS011;38759;53.396;6.722;2024-02-23T13:03:37;3.92;;;1.50;;
52894;SDS011;38759;53.396;6.722;2024-02-23T13:06:05;4.20;;;1.75;;
52894;SDS011;38759;53.396;6.722;2024-02-23T13:08:31;4.75;;;1.20;;
52894;SDS011;38759;53.396;6.722;2024-02-23T13:10:56;5.50;;;1.30;;
52894;SDS011;38759;53.396;6.722;2024-02-23T13:13:23;7.38;;;1.70;;
52894;SDS011;38759;53.396;6.722;2024-02-23T13:15:50;6.22;;;1.30;;
52894;SDS011;38759;53.396;6.722;2024-02-23T13:18:16;4.95;;;1.38;;
52894;SDS011;38759;53.396;6.722;2024-02-23T13:20:44;8.32;;;1.63;;
52894;SDS011;38759;53.396;6.722;2024-02-23T13:23:10;6.10;;;1.33;;
52894;SDS011;38759;53.396;6.722;2024-02-23T13:25:39;7.45;;;1.50;;
52894;SDS011;38759;53.396;6.722;2024-02-23T13:28:06;4.10;;;1.17;;
52894;SDS011;38759;53.396;6.722;2024-02-23T13:30:32;4.70;;;1.40;;
52894;SDS011;38759;53.396;6.722;2024-02-23T13:32:59;5.85;;;1.40;;
52894;SDS011;38759;53.396;6.722;2024-02-23T13:35:25;13.38;;;1.55;;
52894;SDS011;38759;53.396;6.722;2024-02-23T13:37:51;4.80;;;1.20;;
52894;SDS011;38759;53.396;6.722;2024-02-23T13:40:17;9.77;;;1.60;;
52894;SDS011;38759;53.396;6.722;2024-02-23T13:42:43;5.95;;;1.38;;
52894;SDS011;38759;53.396;6.722;2024-02-23T13:45:11;5.22;;;1.27;;
52894;SDS011;38759;53.396;6.722;2024-02-23T13:47:39;4.90;;;1.55;;
52894;SDS011;38759;53.396;6.722;2024-02-23T13:50:05;5.47;;;1.55;;
52894;SDS011;38759;53.396;6.722;2024-02-23T13:52:31;4.28;;;1.50;;
52894;SDS011;38759;53.396;6.722;2024-02-23T13:54:57;9.80;;;1.67;;
52894;SDS011;38759;53.396;6.722;2024-02-23T13:57:23;6.32;;;1.80;;
52894;SDS011;38759;53.396;6.722;2024-02-23T13:59:48;7.95;;;1.80;;
52894;SDS011;38759;53.396;6.722;2024-02-23T14:02:14;7.80;;;1.50;;
52894;SDS011;38759;53.396;6.722;2024-02-23T14:04:40;5.32;;;1.50;;
52894;SDS011;38759;53.396;6.722;2024-02-23T14:07:06;5.80;;;1.63;;
52894;SDS011;38759;53.396;6.722;2024-02-23T14:09:32;5.30;;;1.50;;
52894;SDS011;38759;53.396;6.722;2024-02-23T14:11:59;4.47;;;1.60;;
52894;SDS011;38759;53.396;6.722;2024-02-23T14:14:25;8.73;;;1.88;;
52894;SDS011;38759;53.396;6.722;2024-02-23T14:16:50;10.77;;;2.00;;
52894;SDS011;38759;53.396;6.722;2024-02-23T14:19:16;5.72;;;1.92;;
52894;SDS011;38759;53.396;6.722;2024-02-23T14:21:42;5.80;;;1.73;;
52894;SDS011;38759;53.396;6.722;2024-02-23T14:24:07;5.35;;;1.98;;
52894;SDS011;38759;53.396;6.722;2024-02-23T14:26:33;6.50;;;2.00;;
52894;SDS011;38759;53.396;6.722;2024-02-23T14:28:59;8.02;;;2.05;;
52894;SDS011;38759;53.396;6.722;2024-02-23T14:31:25;7.45;;;2.03;;
52894;SDS011;38759;53.396;6.722;2024-02-23T14:33:51;5.25;;;1.50;;
52894;SDS011;38759;53.396;6.722;2024-02-23T14:36:17;3.30;;;1.02;;
52894;SDS011;38759;53.396;6.722;2024-02-23T14:38:43;3.47;;;1.10;;
52894;SDS011;38759;53.396;6.722;2024-02-23T14:41:09;6.55;;;1.17;;